首页
METAR-TAF:

METAR-TAF

机场 :

维捷布斯克, 白俄罗斯

纬度: 55-10N, 经度: 030-13E, 海拔: 176米

当前天气观测

该预报发布于16分钟前的12:00 UTC
风速6节,风向西转西南
温度 1°C
湿度 86%
气压 1011 hPa
能見度: 9000
多云层高于1100英尺
多云层高于1800英尺, 积雨云.

METAR: UMII 271200Z 24003MPS 9000 BKN011 BKN018CB 01/M01 Q1011 TEMPO 2000 SHSNRA BKN005

时间: 15:16 (12:16 UTC)

预报

该预报发布于1小时和11分钟前的11:05 UTC
预报有效从27日的 12点(UTC)到 27日的 21点(UTC)
风速6节,风向西转西南
能見度: 5000
阴天层高于700英尺
轻雾
短暂存在
从 27日的 12点(UTC)到 27日的 21点(UTC)
风速14节,风向多变
能見度: 1000
多云层高于300英尺
多云层高于1000英尺, 积雨云.
阵雪, 雨, 轻雾

TAF: UMII 271105Z 2712/2721 24003MPS 5000 BR OVC007 TEMPO 2712/2721 VRB07MPS 1000 SHSNRA BR BKN003 BKN010CB

超过4000个机场的气象观测和天气预报(METAR&TAF报告)。

可查询的气象台以黄色和红色小点在地图上表示。

将鼠标移到小点上方,可查看气象台名称。

然后点击查看天气观测和预报。

如需切换地图:点击带黑十字的绿色按钮放大地图;点击带横线的绿色按钮缩小地图;或者点击绿色箭头查看邻近地区的地图。


METAR-TAF: